createdAt,value
2023-04-11T00:02:24.049Z,51.60
2023-04-11T00:05:03.364Z,54.50
2023-04-11T00:07:42.065Z,57.30
2023-04-11T00:10:13.554Z,60.10
2023-04-11T00:12:46.790Z,61.80
2023-04-11T00:15:24.556Z,67.50
2023-04-11T00:17:53.898Z,74.40
2023-04-11T00:20:29.943Z,78.90
2023-04-11T00:22:59.336Z,83.40
2023-04-11T00:25:33.166Z,89.80
2023-04-11T00:28:13.206Z,92.70
2023-04-11T00:30:49.836Z,93.70
2023-04-11T00:33:28.007Z,94.50
2023-04-11T00:36:06.576Z,94.80
2023-04-11T00:38:46.502Z,95.80
2023-04-11T00:41:16.801Z,96.00
2023-04-11T00:43:47.242Z,96.80
2023-04-11T00:46:17.133Z,96.80
2023-04-11T00:48:50.851Z,97.50
2023-04-11T00:51:29.338Z,97.40
2023-04-11T00:54:02.302Z,98.00
2023-04-11T00:56:31.848Z,97.90
2023-04-11T00:59:12.077Z,98.70
2023-04-11T01:01:50.408Z,97.30
2023-04-11T01:04:29.516Z,97.40
2023-04-11T01:07:04.170Z,97.20
2023-04-11T01:09:35.849Z,97.60
2023-04-11T01:12:11.857Z,96.60
2023-04-11T01:14:51.536Z,96.50
2023-04-11T01:17:30.278Z,96.30
2023-04-11T01:20:03.164Z,95.90
2023-04-11T01:22:35.917Z,95.70
2023-04-11T01:25:17.018Z,95.10
2023-04-11T01:27:48.333Z,95.20
2023-04-11T01:30:18.569Z,93.70
2023-04-11T01:32:47.207Z,92.80
2023-04-11T01:35:19.803Z,92.80
2023-04-11T01:37:51.076Z,92.80
2023-04-11T01:40:23.776Z,93.10
2023-04-11T01:43:03.256Z,93.30
2023-04-11T01:45:33.959Z,93.30
2023-04-11T01:48:16.245Z,92.80
2023-04-11T01:50:45.456Z,92.90
2023-04-11T01:53:23.648Z,91.80
2023-04-11T01:55:54.673Z,92.20
2023-04-11T01:58:26.432Z,90.90
2023-04-11T02:01:06.424Z,90.90
2023-04-11T02:03:44.638Z,90.60
2023-04-11T02:06:17.724Z,91.20
2023-04-11T02:08:54.358Z,91.00
2023-04-11T02:11:25.335Z,91.80
2023-04-11T02:13:56.152Z,91.10
2023-04-11T02:16:29.845Z,91.60
2023-04-11T02:19:08.280Z,91.50
2023-04-11T02:21:37.002Z,92.10
2023-04-11T02:24:05.181Z,92.00
2023-04-11T02:26:45.018Z,92.90
2023-04-11T02:29:14.286Z,92.80
2023-04-11T02:31:52.860Z,93.60
2023-04-11T02:34:24.213Z,93.70
2023-04-11T02:36:57.110Z,94.70
2023-04-11T02:39:26.685Z,95.20
2023-04-11T02:42:09.145Z,94.60
2023-04-11T02:44:47.354Z,94.70
2023-04-11T02:47:23.015Z,94.20
2023-04-11T02:49:53.538Z,93.80
2023-04-11T02:52:30.027Z,92.60
2023-04-11T02:54:59.132Z,92.20
2023-04-11T02:57:30.436Z,92.50
2023-04-11T02:59:59.697Z,93.00
2023-04-11T03:02:46.069Z,93.30
2023-04-11T03:05:15.027Z,92.60
2023-04-11T03:07:47.055Z,93.10
2023-04-11T03:10:21.967Z,93.10
2023-04-11T03:12:51.734Z,93.50
2023-04-11T03:15:32.305Z,93.40
2023-04-11T03:18:11.422Z,93.30
2023-04-11T03:20:53.456Z,93.30
2023-04-11T03:23:21.964Z,93.80
2023-04-11T03:25:56.789Z,93.80
2023-04-11T03:28:37.218Z,94.10
2023-04-11T03:31:16.156Z,94.60
2023-04-11T03:33:54.832Z,95.90
2023-04-11T03:36:30.015Z,95.80
2023-04-11T03:39:14.711Z,95.40
2023-04-11T03:41:46.342Z,95.50
2023-04-11T03:44:17.204Z,95.90
2023-04-11T03:46:48.666Z,96.10
2023-04-11T03:49:18.639Z,96.40
2023-04-11T03:51:54.022Z,96.20
2023-04-11T03:54:23.121Z,95.00
2023-04-11T03:57:01.401Z,95.30
2023-04-11T03:59:42.488Z,95.40
2023-04-11T04:02:18.906Z,95.40
2023-04-11T04:04:58.829Z,95.00
2023-04-11T04:07:32.025Z,95.40
2023-04-11T04:10:17.264Z,95.40
2023-04-11T04:13:00.323Z,95.30
2023-04-11T04:15:44.308Z,95.20
2023-04-11T04:18:15.362Z,95.30
2023-04-11T04:20:56.714Z,95.00
2023-04-11T04:23:39.427Z,95.00
2023-04-11T04:26:34.503Z,94.20
2023-04-11T04:29:38.158Z,93.20
2023-04-11T04:32:14.706Z,92.50
2023-04-11T04:34:55.106Z,91.70
2023-04-11T04:37:39.601Z,92.00
2023-04-11T04:40:31.784Z,91.70
2023-04-11T04:43:11.836Z,90.80
2023-04-11T04:45:51.789Z,90.10
2023-04-11T04:48:27.297Z,88.80
2023-04-11T04:50:58.593Z,90.20
2023-04-11T04:53:27.220Z,90.70
2023-04-11T04:56:02.791Z,90.80
2023-04-11T04:58:47.086Z,91.20
2023-04-11T05:01:17.744Z,91.00
2023-04-11T05:03:59.037Z,90.10
2023-04-11T05:06:45.795Z,89.00
2023-04-11T05:09:24.227Z,88.00
2023-04-11T05:12:07.318Z,87.90
2023-04-11T05:14:39.921Z,88.20
2023-04-11T05:17:10.285Z,88.60
2023-04-11T05:19:40.852Z,88.50
2023-04-11T05:22:09.864Z,88.30
2023-04-11T05:24:44.840Z,88.00
2023-04-11T05:27:14.953Z,88.80
2023-04-11T05:29:50.803Z,89.60
2023-04-11T05:32:30.360Z,91.00
2023-04-11T05:35:11.055Z,91.80
2023-04-11T05:37:55.919Z,91.70
2023-04-11T05:40:24.639Z,90.20
2023-04-11T05:42:57.093Z,90.40
2023-04-11T05:45:38.166Z,87.30
2023-04-11T05:48:16.620Z,88.50
2023-04-11T05:50:47.207Z,89.20
2023-04-11T05:53:16.661Z,89.30
2023-04-11T05:55:48.532Z,89.40
2023-04-11T05:58:27.132Z,90.50
2023-04-11T06:01:07.690Z,91.30
2023-04-11T06:03:47.287Z,90.90
2023-04-11T06:06:18.877Z,90.80
2023-04-11T06:08:47.611Z,90.60
2023-04-11T06:11:28.096Z,91.00
2023-04-11T06:13:56.782Z,91.20
2023-04-11T06:16:36.884Z,90.10
2023-04-11T06:19:05.841Z,90.70
2023-04-11T06:21:36.495Z,90.40
2023-04-11T06:24:10.108Z,90.40
2023-04-11T06:26:48.765Z,90.20
2023-04-11T06:29:27.087Z,89.40
2023-04-11T06:32:06.256Z,90.30
2023-04-11T06:34:44.913Z,90.10
2023-04-11T06:37:26.286Z,90.40
2023-04-11T06:39:58.132Z,90.30
2023-04-11T06:42:36.329Z,89.20
2023-04-11T06:45:15.851Z,90.00
2023-04-11T06:47:44.502Z,89.70
2023-04-11T06:50:13.948Z,88.80
2023-04-11T06:52:44.785Z,86.00
2023-04-11T06:55:19.680Z,88.10
2023-04-11T06:57:48.623Z,87.40
2023-04-11T07:00:17.289Z,86.10
2023-04-11T07:02:51.194Z,85.40
2023-04-11T07:05:22.270Z,85.50
2023-04-11T07:07:51.922Z,86.00
2023-04-11T07:10:21.028Z,84.20
2023-04-11T07:12:59.155Z,83.20
2023-04-11T07:15:28.755Z,81.10
2023-04-11T07:17:57.638Z,80.20
2023-04-11T07:20:27.428Z,77.40
2023-04-11T07:22:59.018Z,78.70
2023-04-11T07:25:30.800Z,78.60
2023-04-11T07:28:00.238Z,79.10
2023-04-11T07:30:30.587Z,77.80
2023-04-11T07:33:03.279Z,75.20
2023-04-11T07:35:39.023Z,75.50
2023-04-11T07:38:11.030Z,76.10
2023-04-11T07:40:45.497Z,75.00
2023-04-11T07:43:23.877Z,72.50
2023-04-11T07:45:52.928Z,73.30
2023-04-11T07:48:32.618Z,72.80
2023-04-11T07:51:01.832Z,75.30
2023-04-11T07:53:41.516Z,75.90
2023-04-11T07:56:13.527Z,71.70
2023-04-11T07:58:42.455Z,70.30
2023-04-11T08:01:20.981Z,72.90
2023-04-11T08:04:00.238Z,74.40
2023-04-11T08:06:32.128Z,73.80
2023-04-11T08:09:12.277Z,67.20
2023-04-11T08:11:41.334Z,70.30
2023-04-11T08:14:19.529Z,66.60
2023-04-11T08:16:49.832Z,68.50
2023-04-11T08:19:24.581Z,69.90
2023-04-11T08:22:02.872Z,68.40
2023-04-11T08:24:34.298Z,65.80
2023-04-11T08:27:12.635Z,64.30
2023-04-11T08:29:43.053Z,65.20
2023-04-11T08:32:12.203Z,63.30
2023-04-11T08:34:44.493Z,56.90
2023-04-11T08:37:22.778Z,57.20
2023-04-11T08:40:02.483Z,56.00
2023-04-11T08:42:31.511Z,54.30
2023-04-11T08:45:10.434Z,51.90
2023-04-11T08:47:39.200Z,51.30
2023-04-11T08:50:08.811Z,50.00
2023-04-11T08:52:39.582Z,47.40
2023-04-11T08:55:16.651Z,45.00
2023-04-11T08:57:48.049Z,41.20
2023-04-11T09:00:29.093Z,43.60
2023-04-11T09:03:08.606Z,44.30
2023-04-11T09:05:38.945Z,45.60
2023-04-11T09:08:17.690Z,46.00
2023-04-11T09:11:02.269Z,44.10
2023-04-11T09:13:30.832Z,41.70
2023-04-11T09:16:09.173Z,39.40
2023-04-11T09:18:46.546Z,36.30
2023-04-11T09:21:24.956Z,40.10
2023-04-11T09:24:14.600Z,35.60
2023-04-11T09:27:06.948Z,37.30
2023-04-11T09:29:40.245Z,39.60
2023-04-11T09:32:32.112Z,37.10
2023-04-11T09:35:11.148Z,39.10
2023-04-11T09:37:45.049Z,39.40
2023-04-11T09:40:16.657Z,36.80
2023-04-11T09:42:49.130Z,35.60
2023-04-11T09:45:27.407Z,36.90
2023-04-11T09:47:58.954Z,37.10
2023-04-11T09:50:38.685Z,37.10
2023-04-11T09:53:12.583Z,36.40
2023-04-11T09:55:50.965Z,33.00
2023-04-11T09:58:24.562Z,32.00
2023-04-11T10:01:02.365Z,31.60
2023-04-11T10:03:42.034Z,32.00
2023-04-11T10:06:24.127Z,30.00
2023-04-11T10:09:05.648Z,28.00
2023-04-11T10:11:34.095Z,28.40
2023-04-11T10:14:06.145Z,29.00
2023-04-11T10:17:11.824Z,27.20
2023-04-11T10:19:43.012Z,29.00
2023-04-11T10:22:31.928Z,30.80
2023-04-11T10:25:18.396Z,32.30
2023-04-11T10:27:48.973Z,32.30
2023-04-11T10:30:46.158Z,30.20
2023-04-11T10:33:17.936Z,33.70
2023-04-11T10:36:02.203Z,31.50
2023-04-11T10:38:50.044Z,31.30
2023-04-11T10:41:29.293Z,32.90
2023-04-11T10:44:24.891Z,31.20
2023-04-11T10:46:55.190Z,32.10
2023-04-11T10:49:36.751Z,32.90
2023-04-11T10:52:19.038Z,32.40
2023-04-11T10:55:14.749Z,33.10
2023-04-11T10:58:07.379Z,31.90
2023-04-11T11:00:50.734Z,34.60
2023-04-11T11:03:30.675Z,34.60
2023-04-11T11:06:11.491Z,34.40
2023-04-11T11:08:41.844Z,34.40
2023-04-11T11:11:15.192Z,32.80
2023-04-11T11:14:03.114Z,33.50
2023-04-11T11:16:37.725Z,35.60
2023-04-11T11:19:07.108Z,35.60
2023-04-11T11:21:39.789Z,33.10
2023-04-11T11:24:11.425Z,35.80
2023-04-11T11:26:40.812Z,45.00
2023-04-11T11:29:10.283Z,52.70
2023-04-11T11:31:41.873Z,48.20
2023-04-11T11:36:56.856Z,47.80
2023-04-11T11:39:35.603Z,40.80
2023-04-11T11:42:08.596Z,39.50
2023-04-11T11:44:46.882Z,41.70
2023-04-11T11:47:25.832Z,43.00
2023-04-11T11:49:55.396Z,38.90
2023-04-11T11:52:36.866Z,38.30
2023-04-11T11:55:29.951Z,39.50
2023-04-11T11:58:08.128Z,38.40
2023-04-11T12:00:40.264Z,37.20
2023-04-11T12:03:11.606Z,36.40
2023-04-11T12:05:44.585Z,34.90
2023-04-11T12:08:25.902Z,35.20
2023-04-11T12:10:55.008Z,33.90
2023-04-11T12:13:33.685Z,33.60
2023-04-11T12:16:07.120Z,34.30
2023-04-11T12:18:36.416Z,34.40
2023-04-11T12:21:11.028Z,33.10
2023-04-11T12:23:41.842Z,33.40
2023-04-11T12:26:21.230Z,34.50
2023-04-11T12:29:02.095Z,34.50
2023-04-11T12:31:40.667Z,35.10
2023-04-11T12:34:10.402Z,38.20
2023-04-11T12:36:48.586Z,34.50
2023-04-11T12:39:19.911Z,33.40
2023-04-11T12:41:49.718Z,34.70
2023-04-11T12:44:21.871Z,34.30
2023-04-11T12:47:00.243Z,34.00
2023-04-11T12:49:38.532Z,33.30
2023-04-11T12:52:10.323Z,32.00
2023-04-11T12:54:46.636Z,32.60
2023-04-11T12:57:17.044Z,32.50
2023-04-11T12:59:48.392Z,34.80
2023-04-11T13:02:23.317Z,35.50
2023-04-11T13:04:54.568Z,40.30
2023-04-11T13:07:33.025Z,41.10
2023-04-11T13:10:14.318Z,39.00
2023-04-11T13:12:58.478Z,36.60
2023-04-11T13:15:36.997Z,35.60
2023-04-11T13:18:07.403Z,33.90
2023-04-11T13:20:46.328Z,34.30
2023-04-11T13:23:24.594Z,31.00
2023-04-11T13:26:04.350Z,31.60
2023-04-11T13:28:42.652Z,29.70
2023-04-11T13:31:26.563Z,29.60
2023-04-11T13:34:04.846Z,29.20
2023-04-11T13:36:33.788Z,29.20
2023-04-11T13:39:06.029Z,29.10
2023-04-11T13:41:46.169Z,29.40
2023-04-11T13:44:24.551Z,28.60
2023-04-11T13:47:03.649Z,31.10
2023-04-11T13:49:35.644Z,29.20
2023-04-11T13:52:05.338Z,29.50
2023-04-11T13:54:34.450Z,27.20
2023-04-11T13:57:07.761Z,27.80
2023-04-11T13:59:36.958Z,30.20
2023-04-11T14:02:05.352Z,28.20
2023-04-11T14:04:43.924Z,27.30
2023-04-11T14:07:15.066Z,27.30
2023-04-11T14:09:52.346Z,26.80
2023-04-11T14:12:28.254Z,26.20
2023-04-11T14:15:07.940Z,25.60
2023-04-11T14:17:37.514Z,25.10
2023-04-11T14:20:16.272Z,26.40
2023-04-11T14:22:46.442Z,26.50
2023-04-11T14:25:20.869Z,23.80
2023-04-11T14:27:50.766Z,20.30
2023-04-11T14:30:25.691Z,21.10
2023-04-11T14:33:01.054Z,21.10
2023-04-11T14:35:39.226Z,22.90
2023-04-11T14:38:13.736Z,23.40
2023-04-11T14:40:42.430Z,24.60
2023-04-11T14:43:19.513Z,23.20
2023-04-11T14:45:48.022Z,23.80
2023-04-11T14:48:27.469Z,23.20
2023-04-11T14:50:56.331Z,24.60
2023-04-11T14:53:26.583Z,23.80
2023-04-11T14:55:58.490Z,23.80
2023-04-11T14:58:28.260Z,23.10
2023-04-11T15:00:56.744Z,21.20
2023-04-11T15:03:25.321Z,22.90
2023-04-11T15:05:53.827Z,22.50
2023-04-11T15:08:21.992Z,23.20
2023-04-11T15:10:54.654Z,22.90
2023-04-11T15:13:23.402Z,22.20
2023-04-11T15:15:53.443Z,23.40
2023-04-11T15:18:23.185Z,24.40
2023-04-11T15:20:52.583Z,23.10
2023-04-11T15:23:22.359Z,22.50
2023-04-11T15:25:53.519Z,22.70
2023-04-11T15:28:21.997Z,22.10
2023-04-11T15:30:51.019Z,23.00
2023-04-11T15:33:22.029Z,23.10
2023-04-11T15:35:50.406Z,22.30
2023-04-11T15:38:18.564Z,22.00
2023-04-11T15:40:49.823Z,22.80
2023-04-11T15:43:18.013Z,22.50
2023-04-11T15:45:46.266Z,21.40
2023-04-11T15:48:14.484Z,23.40
2023-04-11T15:50:44.233Z,21.50
2023-04-11T15:53:13.404Z,22.60
2023-04-11T15:55:42.030Z,23.50
2023-04-11T15:58:10.533Z,24.40
2023-04-11T16:00:39.406Z,24.10
2023-04-11T16:03:10.802Z,23.00
2023-04-11T16:05:40.861Z,23.40
2023-04-11T16:08:10.632Z,24.30
2023-04-11T16:10:39.306Z,23.70
2023-04-11T16:13:07.610Z,24.30
2023-04-11T16:15:36.120Z,25.10
2023-04-11T16:18:04.853Z,24.90
2023-04-11T16:20:33.657Z,25.20
2023-04-11T16:23:01.924Z,25.90
2023-04-11T16:25:31.664Z,24.50
2023-04-11T16:27:59.881Z,23.60
2023-04-11T16:30:28.134Z,23.90
2023-04-11T16:32:56.498Z,24.00
2023-04-11T16:35:24.734Z,23.70
2023-04-11T16:37:53.143Z,25.40
2023-04-11T16:40:21.317Z,24.40
2023-04-11T16:42:50.876Z,23.90
2023-04-11T16:45:19.040Z,24.00
2023-04-11T16:47:47.431Z,22.80
2023-04-11T16:50:15.974Z,22.00
2023-04-11T16:52:44.244Z,22.20
2023-04-11T16:55:13.270Z,22.40
2023-04-11T16:57:41.644Z,21.90
2023-04-11T17:00:15.336Z,22.30
2023-04-11T17:02:43.815Z,23.80
2023-04-11T17:05:12.112Z,24.40
2023-04-11T17:07:41.768Z,24.90
2023-04-11T17:10:10.901Z,25.00
2023-04-11T17:12:39.348Z,25.00
2023-04-11T17:15:08.599Z,25.10
2023-04-11T17:17:38.246Z,25.70
2023-04-11T17:20:09.550Z,25.00
2023-04-11T17:22:41.294Z,24.50
2023-04-11T17:25:10.655Z,25.00
2023-04-11T17:27:38.814Z,25.00
2023-04-11T17:30:09.521Z,25.10
2023-04-11T17:32:40.922Z,25.00
2023-04-11T17:35:09.449Z,24.80
2023-04-11T17:37:38.231Z,24.80
2023-04-11T17:40:13.275Z,24.70
2023-04-11T17:42:41.827Z,25.40
2023-04-11T17:45:17.607Z,25.40
2023-04-11T17:47:48.359Z,26.20
2023-04-11T17:50:17.471Z,26.50
2023-04-11T17:52:46.663Z,26.60
2023-04-11T17:55:15.597Z,26.90
2023-04-11T17:57:43.990Z,27.00
2023-04-11T18:00:19.270Z,27.20
2023-04-11T18:02:49.619Z,26.90
2023-04-11T18:05:23.970Z,26.80
2023-04-11T18:07:54.145Z,26.70
2023-04-11T18:10:23.018Z,27.90
2023-04-11T18:12:52.453Z,27.50
2023-04-11T18:15:20.950Z,27.30
2023-04-11T18:17:51.518Z,27.50
2023-04-11T18:20:19.944Z,27.50
2023-04-11T18:22:54.515Z,27.90
2023-04-11T18:25:23.234Z,28.10
2023-04-11T18:27:51.465Z,28.20
2023-04-11T18:30:20.261Z,27.80
2023-04-11T18:32:51.856Z,28.60
2023-04-11T18:35:20.358Z,28.10
2023-04-11T18:37:48.534Z,28.10
2023-04-11T18:40:17.694Z,28.00
2023-04-11T18:42:47.235Z,31.80
2023-04-11T18:45:18.124Z,33.60
2023-04-11T18:47:46.989Z,35.80
2023-04-11T18:50:17.278Z,35.70
2023-04-11T18:52:46.455Z,35.40
2023-04-11T18:55:15.164Z,36.00
2023-04-11T18:57:47.728Z,36.80
2023-04-11T19:00:19.461Z,36.20
2023-04-11T19:02:50.172Z,35.70
2023-04-11T19:05:20.597Z,35.70
2023-04-11T19:07:48.874Z,37.30
2023-04-11T19:10:16.994Z,40.90
2023-04-11T19:12:45.109Z,41.00
2023-04-11T19:15:13.606Z,41.90
2023-04-11T19:17:41.717Z,40.50
2023-04-11T19:20:12.787Z,40.60
2023-04-11T19:22:42.892Z,40.60
2023-04-11T19:25:11.773Z,40.70
2023-04-11T19:27:41.506Z,41.90
2023-04-11T19:30:10.739Z,42.50
2023-04-11T19:32:42.877Z,40.70
2023-04-11T19:35:11.574Z,44.30
2023-04-11T19:37:39.701Z,44.60
2023-04-11T19:40:11.522Z,43.50
2023-04-11T19:42:40.275Z,44.90
2023-04-11T19:45:09.728Z,43.80
2023-04-11T19:47:39.204Z,42.10
2023-04-11T19:50:08.063Z,43.90
2023-04-11T19:52:36.409Z,43.50
2023-04-11T19:55:04.903Z,44.70
2023-04-11T19:57:34.740Z,44.80
2023-04-11T20:00:03.962Z,44.40
2023-04-11T20:02:33.218Z,46.00
2023-04-11T20:05:01.734Z,46.80
2023-04-11T20:07:29.966Z,47.00
2023-04-11T20:09:58.548Z,48.50
2023-04-11T20:12:26.761Z,47.20
2023-04-11T20:14:56.465Z,48.40
2023-04-11T20:17:24.695Z,48.50
2023-04-11T20:19:54.544Z,47.60
2023-04-11T20:22:25.691Z,48.50
2023-04-11T20:24:54.067Z,42.80
2023-04-11T20:27:22.244Z,42.50
2023-04-11T20:29:50.426Z,43.80
2023-04-11T20:32:20.650Z,43.20
2023-04-11T20:34:48.789Z,42.50
2023-04-11T20:37:18.783Z,45.40
2023-04-11T20:39:47.195Z,46.20
2023-04-11T20:42:15.334Z,44.00
2023-04-11T20:44:43.911Z,46.00
2023-04-11T20:47:12.080Z,46.00
2023-04-11T20:49:41.642Z,46.10
2023-04-11T20:52:09.952Z,46.20
2023-04-11T20:54:38.443Z,45.50
2023-04-11T20:57:06.985Z,49.60
2023-04-11T20:59:35.185Z,50.00
2023-04-11T21:02:03.679Z,51.70
2023-04-11T21:04:31.985Z,51.70
2023-04-11T21:07:06.115Z,51.20
2023-04-11T21:09:36.477Z,49.50
2023-04-11T21:12:05.074Z,50.90
2023-04-11T21:14:33.461Z,49.70
2023-04-11T21:17:01.598Z,47.50
2023-04-11T21:19:29.914Z,47.10
2023-04-11T21:21:58.555Z,45.90
2023-04-11T21:24:28.207Z,48.30
2023-04-11T21:26:56.744Z,48.60
2023-04-11T21:29:25.314Z,45.30
2023-04-11T21:31:53.686Z,45.60
2023-04-11T21:34:22.006Z,45.60
2023-04-11T21:36:50.731Z,45.60
2023-04-11T21:39:20.041Z,45.70
2023-04-11T21:41:50.340Z,45.80
2023-04-11T21:44:19.372Z,45.80
2023-04-11T21:46:48.696Z,45.70
2023-04-11T21:49:17.083Z,47.10
2023-04-11T21:51:45.554Z,49.00
2023-04-11T21:54:13.693Z,47.80
2023-04-11T21:56:43.684Z,45.70
2023-04-11T21:59:13.168Z,45.70
2023-04-11T22:01:41.751Z,45.60
2023-04-11T22:04:11.382Z,46.80
2023-04-11T22:06:46.284Z,47.50
2023-04-11T22:09:14.922Z,46.80
2023-04-11T22:11:43.188Z,45.40
2023-04-11T22:14:16.076Z,45.80
2023-04-11T22:16:49.261Z,45.40
2023-04-11T22:19:19.180Z,45.30
2023-04-11T22:21:48.770Z,46.10
2023-04-11T22:24:17.121Z,45.60
2023-04-11T22:26:49.263Z,45.20
2023-04-11T22:29:18.490Z,45.30
2023-04-11T22:31:49.785Z,43.00
2023-04-11T22:34:18.848Z,41.10
2023-04-11T22:36:46.967Z,43.10
2023-04-11T22:39:15.408Z,43.70
2023-04-11T22:41:47.710Z,43.20
2023-04-11T22:44:15.989Z,43.10
2023-04-11T22:46:44.692Z,43.30
2023-04-11T22:49:14.836Z,43.00
2023-04-11T22:51:43.295Z,40.80
2023-04-11T22:54:13.321Z,42.00
2023-04-11T22:56:42.096Z,41.00
2023-04-11T22:59:10.205Z,39.90
2023-04-11T23:01:38.696Z,39.80
2023-04-11T23:04:07.065Z,41.50
2023-04-11T23:06:36.661Z,41.00
2023-04-11T23:09:05.531Z,42.00
2023-04-11T23:11:33.744Z,41.70
2023-04-11T23:14:02.286Z,42.20
2023-04-11T23:16:30.586Z,39.70
2023-04-11T23:18:59.218Z,39.90
2023-04-11T23:21:27.446Z,43.30
2023-04-11T23:23:57.372Z,39.10
2023-04-11T23:26:25.763Z,40.00
2023-04-11T23:28:54.136Z,42.10
2023-04-11T23:31:22.829Z,41.10
2023-04-11T23:33:51.402Z,40.10
2023-04-11T23:36:19.576Z,38.90
2023-04-11T23:38:48.327Z,41.60
2023-04-11T23:41:17.806Z,42.00
2023-04-11T23:43:46.158Z,41.40
2023-04-11T23:46:15.072Z,40.70
2023-04-11T23:48:43.328Z,40.20
2023-04-11T23:51:11.454Z,41.20
2023-04-11T23:53:40.390Z,41.90
2023-04-11T23:56:09.103Z,42.80
2023-04-11T23:58:38.848Z,43.90
